sensor_id;sensor_type;location;lat;lon;timestamp;P1;durP1;ratioP1;P2;durP2;ratioP2
64938;SDS011;51453;47.738;7.420;2022-09-27T00:02:15;1.65;;;1.00;;
64938;SDS011;51453;47.738;7.420;2022-09-27T00:04:40;1.80;;;1.20;;
64938;SDS011;51453;47.738;7.420;2022-09-27T00:07:06;1.70;;;0.80;;
64938;SDS011;51453;47.738;7.420;2022-09-27T00:09:32;1.35;;;0.80;;
64938;SDS011;51453;47.738;7.420;2022-09-27T00:11:58;1.35;;;0.95;;
64938;SDS011;51453;47.738;7.420;2022-09-27T00:14:24;1.83;;;0.60;;
64938;SDS011;51453;47.738;7.420;2022-09-27T00:16:50;1.35;;;0.80;;
64938;SDS011;51453;47.738;7.420;2022-09-27T00:19:17;1.95;;;0.73;;
64938;SDS011;51453;47.738;7.420;2022-09-27T00:21:46;0.70;;;0.70;;
64938;SDS011;51453;47.738;7.420;2022-09-27T00:24:12;0.70;;;0.70;;
64938;SDS011;51453;47.738;7.420;2022-09-27T00:26:40;1.20;;;0.82;;
64938;SDS011;51453;47.738;7.420;2022-09-27T00:29:05;2.50;;;0.70;;
64938;SDS011;51453;47.738;7.420;2022-09-27T00:31:31;1.15;;;0.93;;
64938;SDS011;51453;47.738;7.420;2022-09-27T00:33:59;5.13;;;0.93;;
64938;SDS011;51453;47.738;7.420;2022-09-27T00:36:27;5.22;;;1.00;;
64938;SDS011;51453;47.738;7.420;2022-09-27T00:38:54;3.63;;;1.00;;
64938;SDS011;51453;47.738;7.420;2022-09-27T00:41:21;2.13;;;0.88;;
64938;SDS011;51453;47.738;7.420;2022-09-27T00:43:50;2.13;;;0.98;;
64938;SDS011;51453;47.738;7.420;2022-09-27T00:46:20;3.92;;;0.77;;
64938;SDS011;51453;47.738;7.420;2022-09-27T00:51:46;2.90;;;1.00;;
64938;SDS011;51453;47.738;7.420;2022-09-27T00:54:16;4.80;;;1.10;;
64938;SDS011;51453;47.738;7.420;2022-09-27T00:56:44;3.17;;;1.25;;
64938;SDS011;51453;47.738;7.420;2022-09-27T00:59:13;2.15;;;0.77;;
64938;SDS011;51453;47.738;7.420;2022-09-27T01:01:44;5.53;;;1.08;;
64938;SDS011;51453;47.738;7.420;2022-09-27T01:04:11;2.80;;;1.08;;
64938;SDS011;51453;47.738;7.420;2022-09-27T01:06:40;2.83;;;1.20;;
64938;SDS011;51453;47.738;7.420;2022-09-27T01:09:06;2.70;;;1.05;;
64938;SDS011;51453;47.738;7.420;2022-09-27T01:11:53;2.90;;;1.15;;
64938;SDS011;51453;47.738;7.420;2022-09-27T01:17:05;5.38;;;1.20;;
64938;SDS011;51453;47.738;7.420;2022-09-27T01:22:31;4.32;;;1.60;;
64938;SDS011;51453;47.738;7.420;2022-09-27T01:25:24;4.95;;;1.13;;
64938;SDS011;51453;47.738;7.420;2022-09-27T01:28:07;4.90;;;1.25;;
64938;SDS011;51453;47.738;7.420;2022-09-27T01:33:59;6.65;;;1.63;;
64938;SDS011;51453;47.738;7.420;2022-09-27T01:36:52;5.32;;;1.60;;
64938;SDS011;51453;47.738;7.420;2022-09-27T01:39:27;5.97;;;1.45;;
64938;SDS011;51453;47.738;7.420;2022-09-27T01:47:18;8.98;;;1.20;;
64938;SDS011;51453;47.738;7.420;2022-09-27T01:52:21;5.22;;;1.30;;
64938;SDS011;51453;47.738;7.420;2022-09-27T01:54:55;5.10;;;1.52;;
64938;SDS011;51453;47.738;7.420;2022-09-27T01:57:24;7.70;;;1.52;;
64938;SDS011;51453;47.738;7.420;2022-09-27T01:59:57;4.03;;;1.42;;
64938;SDS011;51453;47.738;7.420;2022-09-27T02:02:27;7.18;;;1.52;;
64938;SDS011;51453;47.738;7.420;2022-09-27T02:04:55;4.65;;;1.20;;
64938;SDS011;51453;47.738;7.420;2022-09-27T02:07:36;7.40;;;1.48;;
64938;SDS011;51453;47.738;7.420;2022-09-27T02:12:44;9.05;;;1.80;;
64938;SDS011;51453;47.738;7.420;2022-09-27T02:15:15;6.57;;;1.38;;
64938;SDS011;51453;47.738;7.420;2022-09-27T02:17:45;4.65;;;1.33;;
64938;SDS011;51453;47.738;7.420;2022-09-27T02:20:32;7.65;;;1.65;;
64938;SDS011;51453;47.738;7.420;2022-09-27T02:30:34;8.50;;;1.50;;
64938;SDS011;51453;47.738;7.420;2022-09-27T02:33:00;5.35;;;1.40;;
64938;SDS011;51453;47.738;7.420;2022-09-27T02:35:34;5.95;;;1.42;;
64938;SDS011;51453;47.738;7.420;2022-09-27T02:38:00;7.15;;;1.52;;
64938;SDS011;51453;47.738;7.420;2022-09-27T02:40:32;5.75;;;1.30;;
64938;SDS011;51453;47.738;7.420;2022-09-27T02:43:00;3.90;;;1.15;;
64938;SDS011;51453;47.738;7.420;2022-09-27T02:45:29;5.80;;;1.40;;
64938;SDS011;51453;47.738;7.420;2022-09-27T02:48:09;8.10;;;1.38;;
64938;SDS011;51453;47.738;7.420;2022-09-27T03:04:25;6.25;;;1.35;;
64938;SDS011;51453;47.738;7.420;2022-09-27T03:06:58;5.78;;;1.27;;
64938;SDS011;51453;47.738;7.420;2022-09-27T03:09:35;5.97;;;1.42;;
64938;SDS011;51453;47.738;7.420;2022-09-27T03:12:06;4.25;;;1.17;;
64938;SDS011;51453;47.738;7.420;2022-09-27T03:14:31;7.53;;;1.50;;
64938;SDS011;51453;47.738;7.420;2022-09-27T03:16:57;5.55;;;1.25;;
64938;SDS011;51453;47.738;7.420;2022-09-27T03:19:22;6.35;;;1.48;;
64938;SDS011;51453;47.738;7.420;2022-09-27T03:21:49;5.30;;;1.33;;
64938;SDS011;51453;47.738;7.420;2022-09-27T03:24:14;4.05;;;1.13;;
64938;SDS011;51453;47.738;7.420;2022-09-27T03:26:40;3.83;;;1.20;;
64938;SDS011;51453;47.738;7.420;2022-09-27T03:29:06;5.88;;;1.40;;
64938;SDS011;51453;47.738;7.420;2022-09-27T03:31:31;6.30;;;1.13;;
64938;SDS011;51453;47.738;7.420;2022-09-27T03:33:57;5.88;;;1.40;;
64938;SDS011;51453;47.738;7.420;2022-09-27T03:36:23;8.73;;;1.20;;
64938;SDS011;51453;47.738;7.420;2022-09-27T03:38:48;6.78;;;1.40;;
64938;SDS011;51453;47.738;7.420;2022-09-27T03:41:14;7.05;;;1.48;;
64938;SDS011;51453;47.738;7.420;2022-09-27T03:43:40;5.88;;;1.02;;
64938;SDS011;51453;47.738;7.420;2022-09-27T03:46:07;5.65;;;1.17;;
64938;SDS011;51453;47.738;7.420;2022-09-27T03:48:32;5.03;;;1.23;;
64938;SDS011;51453;47.738;7.420;2022-09-27T03:50:58;7.68;;;1.45;;
64938;SDS011;51453;47.738;7.420;2022-09-27T03:53:24;3.72;;;1.10;;
64938;SDS011;51453;47.738;7.420;2022-09-27T03:55:49;4.72;;;1.10;;
64938;SDS011;51453;47.738;7.420;2022-09-27T03:58:15;8.13;;;1.30;;
64938;SDS011;51453;47.738;7.420;2022-09-27T04:00:41;6.50;;;1.30;;
64938;SDS011;51453;47.738;7.420;2022-09-27T04:03:08;5.90;;;1.30;;
64938;SDS011;51453;47.738;7.420;2022-09-27T04:05:35;4.40;;;1.00;;
64938;SDS011;51453;47.738;7.420;2022-09-27T04:08:01;7.65;;;1.40;;
64938;SDS011;51453;47.738;7.420;2022-09-27T04:10:27;5.57;;;1.40;;
64938;SDS011;51453;47.738;7.420;2022-09-27T04:12:52;4.78;;;1.30;;
64938;SDS011;51453;47.738;7.420;2022-09-27T04:15:18;4.28;;;1.13;;
64938;SDS011;51453;47.738;7.420;2022-09-27T04:17:45;6.10;;;1.30;;
64938;SDS011;51453;47.738;7.420;2022-09-27T04:20:10;5.22;;;1.27;;
64938;SDS011;51453;47.738;7.420;2022-09-27T04:22:40;3.50;;;1.08;;
64938;SDS011;51453;47.738;7.420;2022-09-27T04:25:08;7.25;;;1.60;;
64938;SDS011;51453;47.738;7.420;2022-09-27T04:27:34;6.40;;;1.40;;
64938;SDS011;51453;47.738;7.420;2022-09-27T04:29:59;5.80;;;1.30;;
64938;SDS011;51453;47.738;7.420;2022-09-27T04:32:25;5.97;;;1.58;;
64938;SDS011;51453;47.738;7.420;2022-09-27T04:34:51;4.63;;;1.38;;
64938;SDS011;51453;47.738;7.420;2022-09-27T04:37:35;5.35;;;1.35;;
64938;SDS011;51453;47.738;7.420;2022-09-27T04:40:01;7.13;;;1.63;;
64938;SDS011;51453;47.738;7.420;2022-09-27T04:42:27;5.00;;;1.25;;
64938;SDS011;51453;47.738;7.420;2022-09-27T04:44:53;4.45;;;1.20;;
64938;SDS011;51453;47.738;7.420;2022-09-27T04:47:18;3.17;;;1.02;;
64938;SDS011;51453;47.738;7.420;2022-09-27T04:49:45;7.43;;;1.20;;
64938;SDS011;51453;47.738;7.420;2022-09-27T04:52:11;5.32;;;1.50;;
64938;SDS011;51453;47.738;7.420;2022-09-27T04:54:39;6.22;;;1.33;;
64938;SDS011;51453;47.738;7.420;2022-09-27T04:57:05;6.70;;;1.40;;
64938;SDS011;51453;47.738;7.420;2022-09-27T04:59:31;9.07;;;1.30;;
64938;SDS011;51453;47.738;7.420;2022-09-27T05:01:57;5.88;;;1.52;;
64938;SDS011;51453;47.738;7.420;2022-09-27T05:04:24;7.53;;;1.70;;
64938;SDS011;51453;47.738;7.420;2022-09-27T05:06:50;3.35;;;1.73;;
64938;SDS011;51453;47.738;7.420;2022-09-27T05:09:15;8.40;;;1.50;;
64938;SDS011;51453;47.738;7.420;2022-09-27T05:11:41;4.32;;;1.60;;
64938;SDS011;51453;47.738;7.420;2022-09-27T05:14:06;4.50;;;1.80;;
64938;SDS011;51453;47.738;7.420;2022-09-27T05:16:32;6.82;;;1.83;;
64938;SDS011;51453;47.738;7.420;2022-09-27T05:19:00;10.15;;;1.92;;
64938;SDS011;51453;47.738;7.420;2022-09-27T05:21:26;8.73;;;2.20;;
64938;SDS011;51453;47.738;7.420;2022-09-27T05:23:52;9.27;;;2.10;;
64938;SDS011;51453;47.738;7.420;2022-09-27T05:26:18;8.63;;;2.22;;
64938;SDS011;51453;47.738;7.420;2022-09-27T05:28:43;8.25;;;2.00;;
64938;SDS011;51453;47.738;7.420;2022-09-27T05:31:11;7.05;;;2.08;;
64938;SDS011;51453;47.738;7.420;2022-09-27T05:33:38;6.40;;;2.20;;
64938;SDS011;51453;47.738;7.420;2022-09-27T05:36:04;8.50;;;2.05;;
64938;SDS011;51453;47.738;7.420;2022-09-27T05:38:31;5.85;;;2.00;;
64938;SDS011;51453;47.738;7.420;2022-09-27T05:40:56;6.60;;;2.13;;
64938;SDS011;51453;47.738;7.420;2022-09-27T05:43:22;7.60;;;2.22;;
64938;SDS011;51453;47.738;7.420;2022-09-27T05:45:48;8.25;;;2.30;;
64938;SDS011;51453;47.738;7.420;2022-09-27T05:48:17;6.13;;;2.13;;
64938;SDS011;51453;47.738;7.420;2022-09-27T05:50:43;12.38;;;2.42;;
64938;SDS011;51453;47.738;7.420;2022-09-27T05:53:09;5.53;;;2.25;;
64938;SDS011;51453;47.738;7.420;2022-09-27T05:55:35;8.73;;;2.17;;
64938;SDS011;51453;47.738;7.420;2022-09-27T05:58:02;6.82;;;1.70;;
64938;SDS011;51453;47.738;7.420;2022-09-27T06:00:29;9.40;;;2.17;;
64938;SDS011;51453;47.738;7.420;2022-09-27T06:03:00;6.45;;;1.80;;
64938;SDS011;51453;47.738;7.420;2022-09-27T06:05:28;6.07;;;2.10;;
64938;SDS011;51453;47.738;7.420;2022-09-27T06:07:58;8.48;;;2.22;;
64938;SDS011;51453;47.738;7.420;2022-09-27T06:10:26;8.38;;;2.00;;
64938;SDS011;51453;47.738;7.420;2022-09-27T06:12:52;10.15;;;2.22;;
64938;SDS011;51453;47.738;7.420;2022-09-27T06:15:18;8.07;;;2.10;;
64938;SDS011;51453;47.738;7.420;2022-09-27T06:17:43;9.30;;;2.42;;
64938;SDS011;51453;47.738;7.420;2022-09-27T06:20:09;6.22;;;1.80;;
64938;SDS011;51453;47.738;7.420;2022-09-27T06:22:35;9.38;;;2.08;;
64938;SDS011;51453;47.738;7.420;2022-09-27T06:25:01;8.40;;;2.30;;
64938;SDS011;51453;47.738;7.420;2022-09-27T06:27:28;4.10;;;1.52;;
64938;SDS011;51453;47.738;7.420;2022-09-27T06:29:55;5.45;;;1.50;;
64938;SDS011;51453;47.738;7.420;2022-09-27T06:32:21;5.65;;;1.45;;
64938;SDS011;51453;47.738;7.420;2022-09-27T06:34:46;2.38;;;1.23;;
64938;SDS011;51453;47.738;7.420;2022-09-27T06:37:12;6.40;;;1.20;;
64938;SDS011;51453;47.738;7.420;2022-09-27T06:39:39;5.05;;;1.40;;
64938;SDS011;51453;47.738;7.420;2022-09-27T06:42:05;5.25;;;1.40;;
64938;SDS011;51453;47.738;7.420;2022-09-27T06:44:31;10.32;;;1.75;;
64938;SDS011;51453;47.738;7.420;2022-09-27T06:46:57;5.45;;;1.90;;
64938;SDS011;51453;47.738;7.420;2022-09-27T06:49:22;7.97;;;2.10;;
64938;SDS011;51453;47.738;7.420;2022-09-27T06:51:49;6.95;;;2.35;;
64938;SDS011;51453;47.738;7.420;2022-09-27T06:54:16;12.48;;;2.30;;
64938;SDS011;51453;47.738;7.420;2022-09-27T06:56:43;9.27;;;2.58;;
64938;SDS011;51453;47.738;7.420;2022-09-27T06:59:11;8.23;;;2.20;;
64938;SDS011;51453;47.738;7.420;2022-09-27T07:01:55;7.97;;;2.33;;
64938;SDS011;51453;47.738;7.420;2022-09-27T07:04:20;7.90;;;2.20;;
64938;SDS011;51453;47.738;7.420;2022-09-27T07:06:46;6.10;;;2.38;;
64938;SDS011;51453;47.738;7.420;2022-09-27T07:09:12;12.52;;;2.55;;
64938;SDS011;51453;47.738;7.420;2022-09-27T07:11:38;11.90;;;2.50;;
64938;SDS011;51453;47.738;7.420;2022-09-27T07:14:04;9.30;;;2.13;;
64938;SDS011;51453;47.738;7.420;2022-09-27T07:16:32;9.20;;;2.10;;
64938;SDS011;51453;47.738;7.420;2022-09-27T07:18:58;6.72;;;2.10;;
64938;SDS011;51453;47.738;7.420;2022-09-27T07:21:24;10.23;;;1.90;;
64938;SDS011;51453;47.738;7.420;2022-09-27T07:23:50;10.02;;;2.10;;
64938;SDS011;51453;47.738;7.420;2022-09-27T07:26:16;7.30;;;2.55;;
64938;SDS011;51453;47.738;7.420;2022-09-27T07:28:42;8.75;;;2.33;;
64938;SDS011;51453;47.738;7.420;2022-09-27T07:31:09;9.70;;;1.85;;
64938;SDS011;51453;47.738;7.420;2022-09-27T07:33:35;9.32;;;2.03;;
64938;SDS011;51453;47.738;7.420;2022-09-27T07:36:12;9.13;;;2.35;;
64938;SDS011;51453;47.738;7.420;2022-09-27T07:38:38;9.27;;;2.08;;
64938;SDS011;51453;47.738;7.420;2022-09-27T07:41:07;9.18;;;2.10;;
64938;SDS011;51453;47.738;7.420;2022-09-27T07:43:33;7.32;;;2.05;;
64938;SDS011;51453;47.738;7.420;2022-09-27T07:45:59;6.25;;;1.55;;
64938;SDS011;51453;47.738;7.420;2022-09-27T07:48:25;8.48;;;1.67;;
64938;SDS011;51453;47.738;7.420;2022-09-27T07:50:51;4.65;;;1.55;;
64938;SDS011;51453;47.738;7.420;2022-09-27T07:53:18;8.18;;;1.90;;
64938;SDS011;51453;47.738;7.420;2022-09-27T07:55:48;8.27;;;1.80;;
64938;SDS011;51453;47.738;7.420;2022-09-27T07:58:15;13.18;;;2.22;;
64938;SDS011;51453;47.738;7.420;2022-09-27T08:00:41;10.48;;;2.17;;
64938;SDS011;51453;47.738;7.420;2022-09-27T08:03:12;9.15;;;2.20;;
64938;SDS011;51453;47.738;7.420;2022-09-27T08:05:40;8.65;;;2.55;;
64938;SDS011;51453;47.738;7.420;2022-09-27T08:08:07;10.60;;;2.15;;
64938;SDS011;51453;47.738;7.420;2022-09-27T08:10:33;12.25;;;2.30;;
64938;SDS011;51453;47.738;7.420;2022-09-27T08:13:03;10.57;;;2.75;;
64938;SDS011;51453;47.738;7.420;2022-09-27T08:15:32;10.73;;;2.43;;
64938;SDS011;51453;47.738;7.420;2022-09-27T08:18:00;9.00;;;2.15;;
64938;SDS011;51453;47.738;7.420;2022-09-27T08:20:26;9.98;;;2.28;;
64938;SDS011;51453;47.738;7.420;2022-09-27T08:22:52;11.48;;;2.40;;
64938;SDS011;51453;47.738;7.420;2022-09-27T08:25:18;9.18;;;2.15;;
64938;SDS011;51453;47.738;7.420;2022-09-27T08:27:53;13.35;;;2.70;;
64938;SDS011;51453;47.738;7.420;2022-09-27T08:30:20;8.80;;;2.13;;
64938;SDS011;51453;47.738;7.420;2022-09-27T08:32:46;9.23;;;2.38;;
64938;SDS011;51453;47.738;7.420;2022-09-27T08:35:12;8.50;;;1.77;;
64938;SDS011;51453;47.738;7.420;2022-09-27T08:37:39;7.95;;;1.75;;
64938;SDS011;51453;47.738;7.420;2022-09-27T08:40:05;8.32;;;1.67;;
64938;SDS011;51453;47.738;7.420;2022-09-27T08:42:37;10.73;;;1.50;;
64938;SDS011;51453;47.738;7.420;2022-09-27T08:45:15;3.53;;;1.20;;
64938;SDS011;51453;47.738;7.420;2022-09-27T08:47:57;8.32;;;1.85;;
64938;SDS011;51453;47.738;7.420;2022-09-27T08:50:26;10.45;;;1.77;;
64938;SDS011;51453;47.738;7.420;2022-09-27T08:52:57;4.32;;;1.02;;
64938;SDS011;51453;47.738;7.420;2022-09-27T08:55:35;5.28;;;1.08;;
64938;SDS011;51453;47.738;7.420;2022-09-27T09:01:01;3.88;;;0.88;;
64938;SDS011;51453;47.738;7.420;2022-09-27T09:03:29;4.35;;;1.00;;
64938;SDS011;51453;47.738;7.420;2022-09-27T09:09:02;5.28;;;0.90;;
64938;SDS011;51453;47.738;7.420;2022-09-27T09:20:53;2.20;;;0.50;;
64938;SDS011;51453;47.738;7.420;2022-09-27T09:31:18;3.40;;;0.50;;
64938;SDS011;51453;47.738;7.420;2022-09-27T09:34:25;1.65;;;0.52;;
64938;SDS011;51453;47.738;7.420;2022-09-27T09:36:59;3.75;;;0.52;;
64938;SDS011;51453;47.738;7.420;2022-09-27T09:39:32;2.75;;;0.32;;
64938;SDS011;51453;47.738;7.420;2022-09-27T09:50:03;1.67;;;0.57;;
64938;SDS011;51453;47.738;7.420;2022-09-27T09:52:41;0.50;;;0.40;;
64938;SDS011;51453;47.738;7.420;2022-09-27T09:55:15;1.35;;;0.40;;
64938;SDS011;51453;47.738;7.420;2022-09-27T10:00:50;1.10;;;0.40;;
64938;SDS011;51453;47.738;7.420;2022-09-27T10:03:20;2.92;;;0.63;;
64938;SDS011;51453;47.738;7.420;2022-09-27T10:05:46;5.88;;;0.70;;
64938;SDS011;51453;47.738;7.420;2022-09-27T10:08:16;5.35;;;0.70;;
64938;SDS011;51453;47.738;7.420;2022-09-27T10:10:44;4.53;;;0.65;;
64938;SDS011;51453;47.738;7.420;2022-09-27T10:13:13;3.63;;;0.90;;
64938;SDS011;51453;47.738;7.420;2022-09-27T10:15:41;4.68;;;0.80;;
64938;SDS011;51453;47.738;7.420;2022-09-27T10:18:11;4.70;;;1.10;;
64938;SDS011;51453;47.738;7.420;2022-09-27T10:20:42;3.85;;;1.17;;
64938;SDS011;51453;47.738;7.420;2022-09-27T10:23:21;2.45;;;1.13;;
64938;SDS011;51453;47.738;7.420;2022-09-27T10:31:03;2.35;;;1.00;;
64938;SDS011;51453;47.738;7.420;2022-09-27T10:33:33;6.38;;;1.25;;
64938;SDS011;51453;47.738;7.420;2022-09-27T10:36:02;1.98;;;0.82;;
64938;SDS011;51453;47.738;7.420;2022-09-27T10:38:31;3.88;;;0.95;;
64938;SDS011;51453;47.738;7.420;2022-09-27T10:41:20;4.38;;;0.77;;
64938;SDS011;51453;47.738;7.420;2022-09-27T10:43:55;2.35;;;1.20;;
64938;SDS011;51453;47.738;7.420;2022-09-27T10:48:47;8.40;;;1.55;;
64938;SDS011;51453;47.738;7.420;2022-09-27T10:51:24;4.90;;;0.90;;
64938;SDS011;51453;47.738;7.420;2022-09-27T10:53:54;2.63;;;0.70;;
64938;SDS011;51453;47.738;7.420;2022-09-27T10:56:28;2.97;;;0.93;;
64938;SDS011;51453;47.738;7.420;2022-09-27T10:58:56;2.67;;;1.00;;
64938;SDS011;51453;47.738;7.420;2022-09-27T11:01:24;4.88;;;1.08;;
64938;SDS011;51453;47.738;7.420;2022-09-27T11:04:02;4.03;;;1.10;;
64938;SDS011;51453;47.738;7.420;2022-09-27T11:06:29;5.93;;;1.00;;
64938;SDS011;51453;47.738;7.420;2022-09-27T11:09:43;3.45;;;1.00;;
64938;SDS011;51453;47.738;7.420;2022-09-27T11:12:15;4.68;;;1.05;;
64938;SDS011;51453;47.738;7.420;2022-09-27T11:14:42;6.03;;;1.25;;
64938;SDS011;51453;47.738;7.420;2022-09-27T11:17:16;10.27;;;1.48;;
64938;SDS011;51453;47.738;7.420;2022-09-27T11:20:20;6.03;;;1.40;;
64938;SDS011;51453;47.738;7.420;2022-09-27T11:27:54;5.07;;;1.35;;
64938;SDS011;51453;47.738;7.420;2022-09-27T11:30:30;5.18;;;1.05;;
64938;SDS011;51453;47.738;7.420;2022-09-27T11:36:04;3.42;;;0.93;;
64938;SDS011;51453;47.738;7.420;2022-09-27T11:47:11;5.85;;;0.90;;
64938;SDS011;51453;47.738;7.420;2022-09-27T11:50:11;3.58;;;0.75;;
64938;SDS011;51453;47.738;7.420;2022-09-27T11:58:24;2.38;;;0.70;;
64938;SDS011;51453;47.738;7.420;2022-09-27T12:01:03;3.45;;;0.77;;
64938;SDS011;51453;47.738;7.420;2022-09-27T12:06:16;4.95;;;1.00;;
64938;SDS011;51453;47.738;7.420;2022-09-27T12:09:01;1.58;;;0.60;;
64938;SDS011;51453;47.738;7.420;2022-09-27T12:16:43;2.10;;;0.65;;
64938;SDS011;51453;47.738;7.420;2022-09-27T12:19:13;2.70;;;0.68;;
64938;SDS011;51453;47.738;7.420;2022-09-27T12:21:46;3.03;;;0.75;;
64938;SDS011;51453;47.738;7.420;2022-09-27T12:24:19;6.03;;;0.80;;
64938;SDS011;51453;47.738;7.420;2022-09-27T12:26:47;3.45;;;0.80;;
64938;SDS011;51453;47.738;7.420;2022-09-27T12:34:39;1.77;;;0.60;;
64938;SDS011;51453;47.738;7.420;2022-09-27T12:37:27;3.60;;;0.80;;
64938;SDS011;51453;47.738;7.420;2022-09-27T12:40:02;6.63;;;0.93;;
64938;SDS011;51453;47.738;7.420;2022-09-27T12:45:54;2.45;;;0.80;;
64938;SDS011;51453;47.738;7.420;2022-09-27T12:51:17;1.20;;;0.60;;
64938;SDS011;51453;47.738;7.420;2022-09-27T12:57:00;2.92;;;0.50;;
64938;SDS011;51453;47.738;7.420;2022-09-27T13:00:11;1.80;;;0.50;;
64938;SDS011;51453;47.738;7.420;2022-09-27T13:13:19;2.72;;;0.50;;
64938;SDS011;51453;47.738;7.420;2022-09-27T13:21:03;0.98;;;0.50;;
64938;SDS011;51453;47.738;7.420;2022-09-27T13:30:53;1.17;;;0.40;;
64938;SDS011;51453;47.738;7.420;2022-09-27T13:33:21;1.77;;;0.40;;
64938;SDS011;51453;47.738;7.420;2022-09-27T13:36:06;2.03;;;0.20;;
64938;SDS011;51453;47.738;7.420;2022-09-27T13:38:33;2.40;;;0.40;;
64938;SDS011;51453;47.738;7.420;2022-09-27T13:41:14;0.35;;;0.28;;
64938;SDS011;51453;47.738;7.420;2022-09-27T13:46:19;0.10;;;0.10;;
64938;SDS011;51453;47.738;7.420;2022-09-27T13:48:53;0.52;;;0.20;;
64938;SDS011;51453;47.738;7.420;2022-09-27T13:51:35;0.63;;;0.35;;
64938;SDS011;51453;47.738;7.420;2022-09-27T13:56:58;1.85;;;0.35;;
64938;SDS011;51453;47.738;7.420;2022-09-27T13:59:30;0.82;;;0.20;;
64938;SDS011;51453;47.738;7.420;2022-09-27T14:02:12;0.20;;;0.20;;
64938;SDS011;51453;47.738;7.420;2022-09-27T14:04:46;0.77;;;0.52;;
64938;SDS011;51453;47.738;7.420;2022-09-27T14:07:16;1.17;;;0.20;;
64938;SDS011;51453;47.738;7.420;2022-09-27T14:09:47;1.88;;;0.30;;
64938;SDS011;51453;47.738;7.420;2022-09-27T14:12:17;1.02;;;0.20;;
64938;SDS011;51453;47.738;7.420;2022-09-27T14:14:56;0.20;;;0.20;;
64938;SDS011;51453;47.738;7.420;2022-09-27T14:17:22;1.77;;;0.30;;
64938;SDS011;51453;47.738;7.420;2022-09-27T14:19:50;0.90;;;0.30;;
64938;SDS011;51453;47.738;7.420;2022-09-27T14:22:18;1.42;;;0.30;;
64938;SDS011;51453;47.738;7.420;2022-09-27T14:24:50;2.35;;;0.40;;
64938;SDS011;51453;47.738;7.420;2022-09-27T14:29:50;0.10;;;0.10;;
64938;SDS011;51453;47.738;7.420;2022-09-27T14:32:22;0.95;;;0.22;;
64938;SDS011;51453;47.738;7.420;2022-09-27T14:37:57;0.70;;;0.20;;
64938;SDS011;51453;47.738;7.420;2022-09-27T14:40:24;0.73;;;0.22;;
64938;SDS011;51453;47.738;7.420;2022-09-27T14:42:52;1.63;;;0.40;;
64938;SDS011;51453;47.738;7.420;2022-09-27T14:47:49;2.47;;;0.43;;
64938;SDS011;51453;47.738;7.420;2022-09-27T14:50:17;2.33;;;0.50;;
64938;SDS011;51453;47.738;7.420;2022-09-27T14:52:46;0.60;;;0.30;;
64938;SDS011;51453;47.738;7.420;2022-09-27T14:58:17;1.23;;;0.30;;
64938;SDS011;51453;47.738;7.420;2022-09-27T15:00:38;0.65;;;0.20;;
64938;SDS011;51453;47.738;7.420;2022-09-27T15:03:11;2.60;;;0.20;;
64938;SDS011;51453;47.738;7.420;2022-09-27T15:05:44;0.85;;;0.20;;
64938;SDS011;51453;47.738;7.420;2022-09-27T15:08:10;1.25;;;0.25;;
64938;SDS011;51453;47.738;7.420;2022-09-27T15:10:36;0.50;;;0.20;;
64938;SDS011;51453;47.738;7.420;2022-09-27T15:13:03;1.65;;;0.40;;
64938;SDS011;51453;47.738;7.420;2022-09-27T15:15:34;1.33;;;0.40;;
64938;SDS011;51453;47.738;7.420;2022-09-27T15:18:22;0.68;;;0.20;;
64938;SDS011;51453;47.738;7.420;2022-09-27T15:20:58;3.15;;;0.68;;
64938;SDS011;51453;47.738;7.420;2022-09-27T15:23:25;0.55;;;0.30;;
64938;SDS011;51453;47.738;7.420;2022-09-27T15:26:02;2.50;;;0.40;;
64938;SDS011;51453;47.738;7.420;2022-09-27T15:28:35;2.35;;;0.40;;
64938;SDS011;51453;47.738;7.420;2022-09-27T15:31:03;0.35;;;0.28;;
64938;SDS011;51453;47.738;7.420;2022-09-27T15:33:31;1.55;;;0.25;;
64938;SDS011;51453;47.738;7.420;2022-09-27T15:36:00;2.92;;;0.40;;
64938;SDS011;51453;47.738;7.420;2022-09-27T15:38:34;1.35;;;0.30;;
64938;SDS011;51453;47.738;7.420;2022-09-27T15:41:13;1.58;;;0.20;;
64938;SDS011;51453;47.738;7.420;2022-09-27T15:43:50;0.32;;;0.30;;
64938;SDS011;51453;47.738;7.420;2022-09-27T15:51:42;0.73;;;0.35;;
64938;SDS011;51453;47.738;7.420;2022-09-27T15:54:09;1.15;;;0.25;;
64938;SDS011;51453;47.738;7.420;2022-09-27T15:56:35;0.40;;;0.22;;
64938;SDS011;51453;47.738;7.420;2022-09-27T15:59:03;0.52;;;0.30;;
64938;SDS011;51453;47.738;7.420;2022-09-27T16:01:28;0.30;;;0.30;;
64938;SDS011;51453;47.738;7.420;2022-09-27T16:03:56;0.47;;;0.40;;
64938;SDS011;51453;47.738;7.420;2022-09-27T16:06:23;3.15;;;0.30;;
64938;SDS011;51453;47.738;7.420;2022-09-27T16:08:52;1.58;;;0.20;;
64938;SDS011;51453;47.738;7.420;2022-09-27T16:11:17;1.10;;;0.32;;
64938;SDS011;51453;47.738;7.420;2022-09-27T16:13:43;1.77;;;0.35;;
64938;SDS011;51453;47.738;7.420;2022-09-27T16:16:13;0.70;;;0.30;;
64938;SDS011;51453;47.738;7.420;2022-09-27T16:18:41;1.85;;;0.30;;
64938;SDS011;51453;47.738;7.420;2022-09-27T16:21:08;1.00;;;0.38;;
64938;SDS011;51453;47.738;7.420;2022-09-27T16:23:34;3.05;;;0.40;;
64938;SDS011;51453;47.738;7.420;2022-09-27T16:25:59;4.38;;;0.50;;
64938;SDS011;51453;47.738;7.420;2022-09-27T16:28:25;1.80;;;0.70;;
64938;SDS011;51453;47.738;7.420;2022-09-27T16:30:51;1.30;;;0.63;;
64938;SDS011;51453;47.738;7.420;2022-09-27T16:33:16;0.60;;;0.47;;
64938;SDS011;51453;47.738;7.420;2022-09-27T16:35:42;1.85;;;0.40;;
64938;SDS011;51453;47.738;7.420;2022-09-27T16:38:08;1.20;;;0.50;;
64938;SDS011;51453;47.738;7.420;2022-09-27T16:40:34;1.20;;;0.47;;
64938;SDS011;51453;47.738;7.420;2022-09-27T16:43:01;1.50;;;0.50;;
64938;SDS011;51453;47.738;7.420;2022-09-27T16:45:31;1.10;;;0.60;;
64938;SDS011;51453;47.738;7.420;2022-09-27T16:48:00;2.05;;;0.50;;
64938;SDS011;51453;47.738;7.420;2022-09-27T16:50:26;2.28;;;0.52;;
64938;SDS011;51453;47.738;7.420;2022-09-27T16:53:10;4.05;;;0.77;;
64938;SDS011;51453;47.738;7.420;2022-09-27T16:55:37;1.17;;;0.60;;
64938;SDS011;51453;47.738;7.420;2022-09-27T16:58:03;2.53;;;0.85;;
64938;SDS011;51453;47.738;7.420;2022-09-27T17:00:31;1.83;;;0.80;;
64938;SDS011;51453;47.738;7.420;2022-09-27T17:02:57;2.20;;;0.70;;
64938;SDS011;51453;47.738;7.420;2022-09-27T17:05:24;1.98;;;0.80;;
64938;SDS011;51453;47.738;7.420;2022-09-27T17:07:53;3.08;;;0.90;;
64938;SDS011;51453;47.738;7.420;2022-09-27T17:10:19;3.15;;;0.70;;
64938;SDS011;51453;47.738;7.420;2022-09-27T17:12:46;1.65;;;0.77;;
64938;SDS011;51453;47.738;7.420;2022-09-27T17:15:12;2.95;;;0.88;;
64938;SDS011;51453;47.738;7.420;2022-09-27T17:17:38;3.45;;;1.00;;
64938;SDS011;51453;47.738;7.420;2022-09-27T17:20:04;2.42;;;0.70;;
64938;SDS011;51453;47.738;7.420;2022-09-27T17:22:30;2.33;;;0.80;;
64938;SDS011;51453;47.738;7.420;2022-09-27T17:24:56;4.10;;;1.08;;
64938;SDS011;51453;47.738;7.420;2022-09-27T17:27:22;4.07;;;0.95;;
64938;SDS011;51453;47.738;7.420;2022-09-27T17:29:51;5.60;;;1.20;;
64938;SDS011;51453;47.738;7.420;2022-09-27T17:32:17;4.93;;;1.33;;
64938;SDS011;51453;47.738;7.420;2022-09-27T17:34:46;9.23;;;1.30;;
64938;SDS011;51453;47.738;7.420;2022-09-27T17:37:12;3.67;;;1.17;;
64938;SDS011;51453;47.738;7.420;2022-09-27T17:39:37;5.38;;;1.38;;
64938;SDS011;51453;47.738;7.420;2022-09-27T17:42:03;2.25;;;1.40;;
64938;SDS011;51453;47.738;7.420;2022-09-27T17:44:30;5.22;;;1.80;;
64938;SDS011;51453;47.738;7.420;2022-09-27T17:46:56;7.50;;;3.60;;
64938;SDS011;51453;47.738;7.420;2022-09-27T17:49:40;11.05;;;6.60;;
64938;SDS011;51453;47.738;7.420;2022-09-27T17:52:24;4.30;;;2.22;;
64938;SDS011;51453;47.738;7.420;2022-09-27T17:54:51;17.90;;;7.32;;
64938;SDS011;51453;47.738;7.420;2022-09-27T17:57:21;6.28;;;1.58;;
64938;SDS011;51453;47.738;7.420;2022-09-27T17:59:47;10.85;;;3.80;;